createdAt,value
2022-11-01T00:00:46.292Z,0.00
2022-11-01T00:01:46.383Z,0.00
2022-11-01T00:02:46.257Z,0.00
2022-11-01T00:03:46.247Z,0.00
2022-11-01T00:04:46.250Z,0.00
2022-11-01T00:05:46.210Z,0.00
2022-11-01T00:06:46.223Z,0.00
2022-11-01T00:07:46.229Z,0.00
2022-11-01T00:08:46.169Z,0.00
2022-11-01T00:09:46.207Z,0.00
2022-11-01T00:10:46.149Z,0.00
2022-11-01T00:11:46.141Z,0.00
2022-11-01T00:12:46.138Z,0.00
2022-11-01T00:13:46.157Z,0.00
2022-11-01T00:14:46.116Z,0.00
2022-11-01T00:15:46.139Z,0.00
2022-11-01T00:16:46.096Z,0.00
2022-11-01T00:17:46.079Z,0.00
2022-11-01T00:18:46.058Z,0.00
2022-11-01T00:19:46.066Z,0.00
2022-11-01T00:20:46.075Z,0.00
2022-11-01T00:21:46.027Z,0.00
2022-11-01T00:22:46.029Z,0.00
2022-11-01T00:23:46.012Z,0.00
2022-11-01T00:24:45.999Z,0.00
2022-11-01T00:25:46.040Z,0.00
2022-11-01T00:26:46.040Z,0.00
2022-11-01T00:27:46.985Z,0.00
2022-11-01T00:28:45.971Z,0.00
2022-11-01T00:29:45.949Z,0.00
2022-11-01T00:30:46.018Z,0.00
2022-11-01T00:31:45.922Z,0.00
2022-11-01T00:32:45.940Z,0.00
2022-11-01T00:33:45.903Z,0.00
2022-11-01T00:34:45.883Z,0.00
2022-11-01T00:35:45.907Z,0.00
2022-11-01T00:36:45.859Z,0.00
2022-11-01T00:37:45.852Z,0.00
2022-11-01T00:38:45.846Z,0.00
2022-11-01T00:39:45.829Z,0.00
2022-11-01T00:40:45.856Z,0.00
2022-11-01T00:41:45.821Z,0.00
2022-11-01T00:42:45.799Z,0.00
2022-11-01T00:43:45.788Z,0.00
2022-11-01T00:44:45.789Z,0.00
2022-11-01T00:45:45.810Z,0.00
2022-11-01T00:46:45.753Z,0.00
2022-11-01T00:47:45.756Z,0.00
2022-11-01T00:48:45.732Z,0.00
2022-11-01T00:49:45.723Z,0.00
2022-11-01T00:50:45.752Z,0.00
2022-11-01T00:51:45.733Z,0.00
2022-11-01T00:52:45.683Z,0.00
2022-11-01T00:53:45.679Z,0.00
2022-11-01T00:54:45.667Z,0.00
2022-11-01T00:55:45.698Z,0.00
2022-11-01T00:56:45.672Z,0.00
2022-11-01T00:57:45.632Z,0.00
2022-11-01T00:58:45.613Z,0.00
2022-11-01T00:59:45.658Z,0.00
2022-11-01T01:00:45.639Z,0.00
2022-11-01T01:01:45.782Z,0.00
2022-11-01T01:02:45.587Z,0.00
2022-11-01T01:03:45.561Z,0.00
2022-11-01T01:04:45.557Z,0.00
2022-11-01T01:05:45.534Z,0.00
2022-11-01T01:06:45.563Z,0.00
2022-11-01T01:07:45.514Z,0.00
2022-11-01T01:08:45.559Z,0.00
2022-11-01T01:09:45.509Z,0.00
2022-11-01T01:10:45.487Z,0.00
2022-11-01T01:11:45.508Z,0.00
2022-11-01T01:12:45.453Z,0.00
2022-11-01T01:13:45.464Z,0.00
2022-11-01T01:14:45.437Z,0.00
2022-11-01T01:15:45.431Z,0.00
2022-11-01T01:16:45.448Z,0.00
2022-11-01T01:17:45.415Z,0.00
2022-11-01T01:18:45.388Z,0.00
2022-11-01T01:19:45.437Z,0.00
2022-11-01T01:20:45.387Z,0.00
2022-11-01T01:21:45.392Z,0.00
2022-11-01T01:22:45.342Z,0.00
2022-11-01T01:23:45.341Z,0.00
2022-11-01T01:24:45.339Z,0.00
2022-11-01T01:25:45.318Z,0.00
2022-11-01T01:26:45.299Z,0.00
2022-11-01T01:27:45.340Z,0.00
2022-11-01T01:28:45.281Z,0.00
2022-11-01T01:29:45.276Z,0.00
2022-11-01T01:30:45.259Z,0.00
2022-11-01T01:31:45.250Z,0.00
2022-11-01T01:32:45.270Z,0.00
2022-11-01T01:33:45.223Z,0.00
2022-11-01T01:34:45.229Z,0.00
2022-11-01T01:35:45.208Z,0.00
2022-11-01T01:36:45.192Z,0.00
2022-11-01T01:37:45.279Z,0.00
2022-11-01T01:38:45.200Z,0.00
2022-11-01T01:39:45.183Z,0.00
2022-11-01T01:40:45.144Z,0.00
2022-11-01T01:41:45.174Z,0.00
2022-11-01T01:42:45.173Z,0.00
2022-11-01T01:43:45.116Z,0.00
2022-11-01T01:44:45.102Z,0.00
2022-11-01T01:45:45.099Z,0.00
2022-11-01T01:46:45.113Z,0.00
2022-11-01T01:47:45.108Z,0.00
2022-11-01T01:48:45.102Z,0.00
2022-11-01T01:49:45.073Z,0.00
2022-11-01T01:50:45.037Z,0.00
2022-11-01T01:51:45.031Z,0.00
2022-11-01T01:52:45.060Z,0.00
2022-11-01T01:53:45.873Z,0.00
2022-11-01T01:54:44.999Z,0.00
2022-11-01T01:55:45.234Z,0.00
2022-11-01T01:56:44.964Z,0.00
2022-11-01T01:57:44.958Z,0.00
2022-11-01T01:58:44.976Z,0.00
2022-11-01T01:59:44.934Z,0.00
2022-11-01T02:00:45.050Z,0.00
2022-11-01T02:01:45.030Z,0.00
2022-11-01T02:02:44.899Z,0.00
2022-11-01T02:03:44.924Z,0.00
2022-11-01T02:04:44.927Z,0.00
2022-11-01T02:05:44.869Z,0.00
2022-11-01T02:06:44.862Z,0.00
2022-11-01T02:07:44.871Z,0.00
2022-11-01T02:08:44.874Z,0.00
2022-11-01T02:09:44.829Z,0.00
2022-11-01T02:10:44.849Z,0.00
2022-11-01T02:11:44.793Z,0.00
2022-11-01T02:12:44.796Z,0.00
2022-11-01T02:13:44.783Z,0.00
2022-11-01T02:14:44.768Z,0.00
2022-11-01T02:15:44.796Z,0.00
2022-11-01T02:16:44.753Z,0.00
2022-11-01T02:17:44.794Z,0.00
2022-11-01T02:18:44.726Z,0.00
2022-11-01T02:19:44.719Z,0.00
2022-11-01T02:20:44.725Z,0.00
2022-11-01T02:21:44.688Z,0.00
2022-11-01T02:23:44.722Z,0.00
2022-11-01T02:24:44.698Z,0.00
2022-11-01T02:25:44.702Z,0.00
2022-11-01T02:26:44.645Z,0.00
2022-11-01T02:27:44.669Z,0.00
2022-11-01T02:28:44.632Z,0.00
2022-11-01T02:29:44.614Z,0.00
2022-11-01T02:30:44.593Z,0.00
2022-11-01T02:31:45.374Z,0.00
2022-11-01T02:32:44.606Z,0.00
2022-11-01T02:33:44.571Z,0.00
2022-11-01T02:34:44.540Z,0.00
2022-11-01T02:35:44.526Z,0.00
2022-11-01T02:36:44.605Z,0.00
2022-11-01T02:37:44.560Z,0.00
2022-11-01T02:38:44.502Z,0.00
2022-11-01T02:39:44.490Z,0.00
2022-11-01T02:40:44.524Z,0.00
2022-11-01T02:41:44.463Z,0.00
2022-11-01T02:42:44.458Z,0.00
2022-11-01T02:43:44.506Z,0.00
2022-11-01T02:44:44.439Z,0.00
2022-11-01T02:45:45.432Z,0.00
2022-11-01T02:46:44.419Z,0.00
2022-11-01T02:47:44.398Z,0.00
2022-11-01T02:48:44.422Z,0.00
2022-11-01T02:49:44.418Z,0.00
2022-11-01T02:50:44.407Z,0.00
2022-11-01T02:51:44.351Z,0.00
2022-11-01T02:52:44.350Z,0.00
2022-11-01T02:53:44.337Z,0.00
2022-11-01T02:54:44.318Z,0.00
2022-11-01T02:56:44.318Z,0.00
2022-11-01T02:57:44.281Z,0.00
2022-11-01T02:58:44.327Z,0.00
2022-11-01T02:59:44.262Z,0.00
2022-11-01T03:00:44.355Z,0.00
2022-11-01T03:01:45.008Z,0.00
2022-11-01T03:02:44.229Z,0.00
2022-11-01T03:03:44.250Z,0.00
2022-11-01T03:04:44.485Z,0.00
2022-11-01T03:05:44.200Z,0.00
2022-11-01T03:06:44.189Z,0.00
2022-11-01T03:07:44.186Z,0.00
2022-11-01T03:08:44.189Z,0.00
2022-11-01T03:09:44.206Z,0.00
2022-11-01T03:10:44.150Z,0.00
2022-11-01T03:11:44.222Z,0.00
2022-11-01T03:12:44.123Z,0.00
2022-11-01T03:13:44.151Z,0.00
2022-11-01T03:14:44.100Z,0.00
2022-11-01T03:15:44.096Z,0.00
2022-11-01T03:16:44.084Z,0.00
2022-11-01T03:17:44.062Z,0.00
2022-11-01T03:18:44.100Z,0.00
2022-11-01T03:19:44.052Z,0.00
2022-11-01T03:20:44.031Z,0.00
2022-11-01T03:21:44.029Z,0.00
2022-11-01T03:22:44.038Z,0.00
2022-11-01T03:23:44.031Z,0.00
2022-11-01T03:24:43.987Z,0.00
2022-11-01T03:25:43.982Z,0.00
2022-11-01T03:26:43.966Z,0.00
2022-11-01T03:27:43.958Z,0.00
2022-11-01T03:28:43.975Z,0.00
2022-11-01T03:29:43.960Z,0.00
2022-11-01T03:30:43.919Z,0.00
2022-11-01T03:31:43.961Z,0.00
2022-11-01T03:32:43.902Z,0.00
2022-11-01T03:33:43.931Z,0.00
2022-11-01T03:34:43.873Z,0.00
2022-11-01T03:35:43.875Z,0.00
2022-11-01T03:36:43.860Z,0.00
2022-11-01T03:37:43.837Z,0.00
2022-11-01T03:38:43.845Z,0.00
2022-11-01T03:39:43.918Z,0.00
2022-11-01T03:40:43.805Z,0.00
2022-11-01T03:41:43.793Z,0.00
2022-11-01T03:42:43.801Z,0.00
2022-11-01T03:43:43.799Z,0.00
2022-11-01T03:44:43.775Z,0.00
2022-11-01T03:45:43.751Z,0.00
2022-11-01T03:46:43.740Z,0.00
2022-11-01T03:47:43.763Z,0.00
2022-11-01T03:48:43.716Z,0.00
2022-11-01T03:49:43.734Z,0.00
2022-11-01T03:50:43.701Z,0.00
2022-11-01T03:51:43.691Z,0.00
2022-11-01T03:52:43.679Z,0.00
2022-11-01T03:53:43.671Z,0.00
2022-11-01T03:54:43.700Z,0.00
2022-11-01T03:55:43.633Z,0.00
2022-11-01T03:56:43.629Z,0.00
2022-11-01T03:57:43.619Z,0.00
2022-11-01T03:58:44.929Z,0.00
2022-11-01T03:59:43.602Z,0.00
2022-11-01T04:00:43.658Z,0.00
2022-11-01T04:01:43.701Z,0.00
2022-11-01T04:02:43.555Z,0.00
2022-11-01T04:03:43.544Z,0.00
2022-11-01T04:04:43.540Z,0.00
2022-11-01T04:05:43.560Z,0.00
2022-11-01T04:06:43.519Z,0.00
2022-11-01T04:07:43.505Z,0.00
2022-11-01T04:08:43.496Z,0.00
2022-11-01T04:09:43.730Z,0.00
2022-11-01T04:10:43.509Z,0.00
2022-11-01T04:11:50.228Z,0.00
2022-11-01T04:12:50.214Z,0.00
2022-11-01T04:13:49.397Z,0.00
2022-11-01T04:14:43.433Z,0.00
2022-11-01T04:15:43.447Z,0.00
2022-11-01T04:16:43.400Z,0.00
2022-11-01T04:17:43.401Z,0.00
2022-11-01T04:18:43.444Z,0.00
2022-11-01T04:19:43.398Z,0.00
2022-11-01T04:20:43.560Z,0.00
2022-11-01T04:21:43.360Z,0.00
2022-11-01T04:22:43.334Z,0.00
2022-11-01T04:23:43.896Z,0.00
2022-11-01T04:24:43.314Z,0.00
2022-11-01T04:25:43.301Z,0.00
2022-11-01T04:26:43.321Z,0.00
2022-11-01T04:27:43.300Z,0.00
2022-11-01T04:28:43.270Z,0.00
2022-11-01T04:29:43.287Z,0.00
2022-11-01T04:30:43.254Z,0.00
2022-11-01T04:31:43.268Z,0.00
2022-11-01T04:32:43.232Z,0.00
2022-11-01T04:33:43.211Z,0.00
2022-11-01T04:34:43.235Z,0.00
2022-11-01T04:35:43.223Z,0.00
2022-11-01T04:36:43.182Z,0.00
2022-11-01T04:37:43.219Z,0.00
2022-11-01T04:38:43.195Z,0.00
2022-11-01T04:39:43.143Z,0.00
2022-11-01T04:40:43.141Z,0.00
2022-11-01T04:41:43.115Z,0.00
2022-11-01T04:42:43.123Z,0.00
2022-11-01T04:43:43.140Z,0.00
2022-11-01T04:44:43.090Z,0.00
2022-11-01T04:45:43.071Z,0.00
2022-11-01T04:46:43.064Z,0.00
2022-11-01T04:47:43.049Z,0.00
2022-11-01T04:48:43.084Z,0.00
2022-11-01T04:49:43.034Z,0.00
2022-11-01T04:50:43.079Z,0.00
2022-11-01T04:51:43.050Z,0.00
2022-11-01T04:52:42.999Z,0.00
2022-11-01T04:53:42.989Z,0.00
2022-11-01T04:54:42.984Z,0.00
2022-11-01T04:55:42.962Z,0.00
2022-11-01T04:56:42.986Z,0.00
2022-11-01T04:57:42.957Z,0.00
2022-11-01T04:58:46.056Z,0.00
2022-11-01T04:59:42.949Z,0.00
2022-11-01T05:00:42.955Z,0.00
2022-11-01T05:01:43.978Z,0.00
2022-11-01T05:02:42.889Z,0.00
2022-11-01T05:03:42.889Z,0.00
2022-11-01T05:04:42.870Z,0.00
2022-11-01T05:05:42.890Z,0.00
2022-11-01T05:06:42.835Z,0.00
2022-11-01T05:07:42.888Z,0.00
2022-11-01T05:08:42.845Z,0.00
2022-11-01T05:09:44.916Z,0.00
2022-11-01T05:10:42.831Z,0.00
2022-11-01T05:11:42.788Z,0.00
2022-11-01T05:12:42.776Z,0.00
2022-11-01T05:13:42.771Z,0.00
2022-11-01T05:14:42.770Z,0.00
2022-11-01T05:15:59.272Z,0.00
2022-11-01T05:16:42.782Z,0.00
2022-11-01T05:17:43.001Z,0.00
2022-11-01T05:18:42.715Z,0.00
2022-11-01T05:19:42.695Z,0.00
2022-11-01T05:20:42.732Z,0.00
2022-11-01T05:21:42.682Z,0.00
2022-11-01T05:22:42.663Z,0.00
2022-11-01T05:23:42.655Z,0.00
2022-11-01T05:24:43.669Z,0.00
2022-11-01T05:25:42.662Z,0.00
2022-11-01T05:26:42.621Z,0.00
2022-11-01T05:27:42.612Z,0.00
2022-11-01T05:28:42.603Z,0.00
2022-11-01T05:29:42.584Z,0.00
2022-11-01T05:30:42.590Z,0.00
2022-11-01T05:31:42.599Z,0.00
2022-11-01T05:32:42.549Z,0.00
2022-11-01T05:33:42.545Z,0.00
2022-11-01T05:34:42.523Z,0.00
2022-11-01T05:35:42.541Z,0.00
2022-11-01T05:36:42.509Z,0.00
2022-11-01T05:37:42.493Z,0.00
2022-11-01T05:38:42.483Z,0.00
2022-11-01T05:39:42.528Z,0.00
2022-11-01T05:40:42.451Z,0.00
2022-11-01T05:41:42.483Z,0.00
2022-11-01T05:42:42.435Z,0.00
2022-11-01T05:43:42.479Z,0.00
2022-11-01T05:44:42.417Z,0.00
2022-11-01T05:45:42.398Z,0.00
2022-11-01T05:46:42.427Z,0.00
2022-11-01T05:47:42.375Z,0.00
2022-11-01T05:48:42.369Z,0.00
2022-11-01T05:49:42.363Z,0.00
2022-11-01T05:50:42.349Z,0.00
2022-11-01T05:51:42.365Z,0.00
2022-11-01T05:52:42.324Z,0.00
2022-11-01T05:53:42.325Z,0.00
2022-11-01T05:54:42.302Z,0.00
2022-11-01T05:55:42.294Z,4.00
2022-11-01T05:56:42.310Z,4.00
2022-11-01T05:57:42.962Z,4.00
2022-11-01T05:58:42.253Z,4.00
2022-11-01T05:59:42.250Z,4.00
2022-11-01T06:00:42.265Z,4.00
2022-11-01T06:01:42.488Z,8.00
2022-11-01T06:02:42.301Z,4.00
2022-11-01T06:03:42.203Z,8.00
2022-11-01T06:04:43.054Z,8.00
2022-11-01T06:05:42.182Z,12.00
2022-11-01T06:06:42.161Z,12.00
2022-11-01T06:07:42.153Z,16.00
2022-11-01T06:08:42.153Z,16.00
2022-11-01T06:09:42.135Z,20.00
2022-11-01T06:10:42.161Z,20.00
2022-11-01T06:11:42.140Z,24.00
2022-11-01T06:12:42.151Z,28.00
2022-11-01T06:13:42.092Z,36.00
2022-11-01T06:14:42.107Z,36.00
2022-11-01T06:15:42.067Z,40.00
2022-11-01T06:16:42.063Z,48.00
2022-11-01T06:17:42.050Z,52.00
2022-11-01T06:18:42.038Z,56.00
2022-11-01T06:19:42.115Z,64.00
2022-11-01T06:20:42.002Z,68.00
2022-11-01T06:21:41.997Z,72.00
2022-11-01T06:22:42.016Z,80.00
2022-11-01T06:23:41.984Z,88.00
2022-11-01T06:24:41.965Z,96.00
2022-11-01T06:25:42.040Z,112.00
2022-11-01T06:26:41.943Z,120.00
2022-11-01T06:27:41.934Z,136.00
2022-11-01T06:28:41.929Z,148.00
2022-11-01T06:29:47.888Z,164.00
2022-11-01T06:30:48.408Z,172.00
2022-11-01T06:31:48.412Z,184.00
2022-11-01T06:32:41.874Z,196.00
2022-11-01T06:33:41.878Z,232.00
2022-11-01T06:34:44.849Z,264.00
2022-11-01T06:35:41.854Z,288.00
2022-11-01T06:36:41.867Z,304.00
2022-11-01T06:37:41.856Z,308.00
2022-11-01T06:38:41.806Z,284.00
2022-11-01T06:39:41.800Z,344.00
2022-11-01T06:40:41.789Z,400.00
2022-11-01T06:41:41.790Z,404.00
2022-11-01T06:42:46.353Z,388.00
2022-11-01T06:43:41.766Z,472.00
2022-11-01T06:44:42.324Z,496.00
2022-11-01T06:45:41.739Z,496.00
2022-11-01T06:46:41.755Z,560.00
2022-11-01T06:47:41.745Z,624.00
2022-11-01T06:48:41.695Z,668.00
2022-11-01T06:49:41.698Z,704.00
2022-11-01T06:50:41.676Z,728.00
2022-11-01T06:51:41.663Z,744.00
2022-11-01T06:52:41.657Z,764.00
2022-11-01T06:53:41.691Z,792.00
2022-11-01T06:54:41.668Z,800.00
2022-11-01T06:55:41.637Z,844.00
2022-11-01T06:56:41.667Z,912.00
2022-11-01T06:57:41.637Z,984.00
2022-11-01T06:58:41.639Z,1056.00
2022-11-01T06:59:41.571Z,1136.00
2022-11-01T07:00:42.579Z,1228.00
2022-11-01T07:01:41.667Z,1308.00
2022-11-01T07:02:41.659Z,1384.00
2022-11-01T07:03:41.542Z,1448.00
2022-11-01T07:04:41.601Z,1512.00
2022-11-01T07:05:41.610Z,1568.00
2022-11-01T07:06:41.532Z,1584.00
2022-11-01T07:07:41.534Z,1568.00
2022-11-01T07:08:41.509Z,1592.00
2022-11-01T07:09:41.690Z,1608.00
2022-11-01T07:10:41.450Z,1628.00
2022-11-01T07:11:41.500Z,1660.00
2022-11-01T07:12:41.436Z,1704.00
2022-11-01T07:13:41.457Z,1756.00
2022-11-01T07:14:41.452Z,1816.00
2022-11-01T07:15:41.462Z,1884.00
2022-11-01T07:16:41.424Z,1952.00
2022-11-01T07:17:41.387Z,2008.00
2022-11-01T07:18:41.392Z,2052.00
2022-11-01T07:19:41.895Z,2080.00
2022-11-01T07:20:41.575Z,2036.00
2022-11-01T07:21:41.325Z,1820.00
2022-11-01T07:22:41.592Z,1492.00
2022-11-01T07:23:41.354Z,1176.00
2022-11-01T07:24:41.304Z,876.00
2022-11-01T07:25:41.284Z,944.00
2022-11-01T07:26:42.572Z,1052.00
2022-11-01T07:27:41.266Z,1096.00
2022-11-01T07:28:41.307Z,1172.00
2022-11-01T07:29:41.434Z,1152.00
2022-11-01T07:30:41.253Z,1048.00
2022-11-01T07:31:41.386Z,1140.00
2022-11-01T07:32:41.289Z,1296.00
2022-11-01T07:33:41.236Z,1364.00
2022-11-01T07:34:41.237Z,1336.00
2022-11-01T07:35:42.184Z,1320.00
2022-11-01T07:36:41.163Z,1316.00
2022-11-01T07:37:41.187Z,1380.00
2022-11-01T07:38:41.126Z,1404.00
2022-11-01T07:39:41.127Z,1308.00
2022-11-01T07:40:41.605Z,1364.00
2022-11-01T07:41:41.102Z,1436.00
2022-11-01T07:42:41.192Z,1444.00
2022-11-01T07:43:41.146Z,1480.00
2022-11-01T07:44:41.096Z,1508.00
2022-11-01T07:45:41.058Z,1520.00
2022-11-01T07:46:41.058Z,1648.00
2022-11-01T07:47:41.083Z,1620.00
2022-11-01T07:48:41.026Z,1596.00
2022-11-01T07:49:41.010Z,1636.00
2022-11-01T07:50:41.009Z,1668.00
2022-11-01T07:51:41.045Z,1704.00
2022-11-01T07:52:41.056Z,1776.00
2022-11-01T07:53:41.003Z,1824.00
2022-11-01T07:54:41.059Z,1820.00
2022-11-01T07:55:42.989Z,1848.00
2022-11-01T07:56:40.929Z,1968.00
2022-11-01T07:57:40.970Z,2088.00
2022-11-01T07:58:40.954Z,2136.00
2022-11-01T07:59:40.906Z,2108.00
2022-11-01T08:00:40.946Z,2136.00
2022-11-01T08:01:41.018Z,2216.00
2022-11-01T08:02:40.890Z,2276.00
2022-11-01T08:03:40.903Z,2300.00
2022-11-01T08:04:40.850Z,2352.00
2022-11-01T08:05:40.871Z,2416.00
2022-11-01T08:06:40.838Z,2488.00
2022-11-01T08:07:40.820Z,2576.00
2022-11-01T08:08:40.820Z,2688.00
2022-11-01T08:09:40.831Z,2812.00
2022-11-01T08:10:40.836Z,2932.00
2022-11-01T08:11:41.077Z,3056.00
2022-11-01T08:12:40.767Z,3204.00
2022-11-01T08:13:41.078Z,3308.00
2022-11-01T08:14:40.759Z,3356.00
2022-11-01T08:15:40.718Z,3376.00
2022-11-01T08:16:40.731Z,3388.00
2022-11-01T08:17:40.745Z,3444.00
2022-11-01T08:18:40.681Z,3468.00
2022-11-01T08:19:40.721Z,3492.00
2022-11-01T08:20:40.677Z,3524.00
2022-11-01T08:21:40.664Z,3576.00
2022-11-01T08:22:41.048Z,3664.00
2022-11-01T08:23:40.684Z,3784.00
2022-11-01T08:24:40.650Z,3980.00
2022-11-01T08:25:41.538Z,3948.00
2022-11-01T08:26:40.758Z,3800.00
2022-11-01T08:27:40.584Z,3704.00
2022-11-01T08:28:40.579Z,3632.00
2022-11-01T08:29:40.632Z,3592.00
2022-11-01T08:30:40.562Z,3668.00
2022-11-01T08:31:40.563Z,3680.00
2022-11-01T08:32:40.589Z,3720.00
2022-11-01T08:33:40.820Z,3776.00
2022-11-01T08:34:40.519Z,3848.00
2022-11-01T08:35:42.623Z,3788.00
2022-11-01T08:36:40.506Z,3788.00
2022-11-01T08:37:40.547Z,3792.00
2022-11-01T08:38:40.458Z,3808.00
2022-11-01T08:39:40.569Z,3844.00
2022-11-01T08:40:40.500Z,3856.00
2022-11-01T08:41:40.481Z,3868.00
2022-11-01T08:42:40.726Z,3880.00
2022-11-01T08:43:40.895Z,3912.00
2022-11-01T08:44:40.406Z,3952.00
2022-11-01T08:45:40.453Z,4008.00
2022-11-01T08:46:40.414Z,4008.00
2022-11-01T08:47:40.364Z,4036.00
2022-11-01T08:48:40.412Z,4072.00
2022-11-01T08:49:40.354Z,4112.00
2022-11-01T08:50:40.408Z,4152.00
2022-11-01T08:51:40.351Z,4164.00
2022-11-01T08:52:40.305Z,4164.00
2022-11-01T08:53:40.324Z,4208.00
2022-11-01T08:54:40.345Z,4304.00
2022-11-01T08:55:40.397Z,4452.00
2022-11-01T08:56:40.414Z,4400.00
2022-11-01T08:57:40.262Z,4624.00
2022-11-01T08:58:40.256Z,5256.00
2022-11-01T08:59:41.098Z,5360.00
2022-11-01T09:00:40.220Z,5724.00
2022-11-01T09:01:40.436Z,6520.00
2022-11-01T09:02:40.230Z,7988.00
2022-11-01T09:03:40.216Z,9184.00
2022-11-01T09:04:40.182Z,8796.00
2022-11-01T09:05:40.991Z,8032.00
2022-11-01T09:06:40.148Z,6756.00
2022-11-01T09:07:40.135Z,5484.00
2022-11-01T09:08:40.427Z,4980.00
2022-11-01T09:09:40.112Z,4780.00
2022-11-01T09:10:40.150Z,4932.00
2022-11-01T09:11:41.178Z,5704.00
2022-11-01T09:13:40.141Z,9228.00
2022-11-01T09:14:40.080Z,9380.00
2022-11-01T09:15:40.058Z,6920.00
2022-11-01T09:16:40.044Z,6576.00
2022-11-01T09:17:40.028Z,5812.00
2022-11-01T09:18:40.013Z,4868.00
2022-11-01T09:19:40.057Z,5696.00
2022-11-01T09:20:40.105Z,7840.00
2022-11-01T09:21:39.994Z,6596.00
2022-11-01T09:22:40.007Z,8196.00
2022-11-01T09:23:39.960Z,6628.00
2022-11-01T09:24:39.960Z,4616.00
2022-11-01T09:25:39.948Z,4752.00
2022-11-01T09:26:39.928Z,5292.00
2022-11-01T09:27:39.982Z,6528.00
2022-11-01T09:28:39.994Z,7768.00
2022-11-01T09:29:39.955Z,8448.00
2022-11-01T09:30:49.524Z,7840.00
2022-11-01T09:31:39.908Z,7748.00
2022-11-01T09:32:39.870Z,7864.00
2022-11-01T09:33:40.530Z,8888.00
2022-11-01T09:34:39.834Z,8440.00
2022-11-01T09:35:39.935Z,8140.00
2022-11-01T09:36:40.081Z,7288.00
2022-11-01T09:37:39.812Z,6452.00
2022-11-01T09:38:39.844Z,5972.00
2022-11-01T09:39:39.803Z,5320.00
2022-11-01T09:40:39.813Z,4712.00
2022-11-01T09:41:40.517Z,4308.00
2022-11-01T09:42:39.850Z,4160.00
2022-11-01T09:43:39.822Z,3908.00
2022-11-01T09:44:39.996Z,3472.00
2022-11-01T09:45:40.772Z,3440.00
2022-11-01T09:46:40.510Z,3408.00
2022-11-01T09:47:40.499Z,3492.00
2022-11-01T09:48:39.743Z,3452.00
2022-11-01T09:49:54.503Z,3436.00
2022-11-01T09:50:39.695Z,3256.00
2022-11-01T09:51:41.479Z,3188.00
2022-11-01T09:52:39.641Z,3120.00
2022-11-01T09:53:39.646Z,3188.00
2022-11-01T09:54:45.936Z,3280.00
2022-11-01T09:55:39.598Z,3464.00
2022-11-01T09:56:39.643Z,3864.00
2022-11-01T09:57:39.597Z,4576.00
2022-11-01T09:58:39.624Z,4772.00
2022-11-01T09:59:39.590Z,5024.00
2022-11-01T10:00:39.615Z,5472.00
2022-11-01T10:01:39.716Z,4976.00
2022-11-01T10:02:39.593Z,5248.00
2022-11-01T10:03:39.519Z,5724.00
2022-11-01T10:04:39.495Z,6396.00
2022-11-01T10:05:39.532Z,6336.00
2022-11-01T10:06:39.502Z,6744.00
2022-11-01T10:07:39.528Z,6052.00
2022-11-01T10:08:39.558Z,6380.00
2022-11-01T10:09:39.461Z,7124.00
2022-11-01T10:10:39.442Z,6184.00
2022-11-01T10:11:39.428Z,6924.00
2022-11-01T10:12:39.445Z,8708.00
2022-11-01T10:13:39.401Z,9952.00
2022-11-01T10:14:39.440Z,11184.00
2022-11-01T10:15:39.387Z,10892.00
2022-11-01T10:16:39.380Z,8040.00
2022-11-01T10:17:39.518Z,7276.00
2022-11-01T10:18:39.367Z,8372.00
2022-11-01T10:19:39.380Z,9984.00
2022-11-01T10:20:39.327Z,8852.00
2022-11-01T10:21:39.332Z,9876.00
2022-11-01T10:22:39.418Z,9420.00
2022-11-01T10:23:39.288Z,8892.00
2022-11-01T10:24:39.312Z,8468.00
2022-11-01T10:25:39.356Z,9480.00
2022-11-01T10:26:39.291Z,10436.00
2022-11-01T10:27:39.271Z,9088.00
2022-11-01T10:28:39.289Z,8576.00
2022-11-01T10:29:39.260Z,9980.00
2022-11-01T10:30:39.243Z,12852.00
2022-11-01T10:31:39.230Z,13088.00
2022-11-01T10:32:39.233Z,11984.00
2022-11-01T10:33:39.422Z,9512.00
2022-11-01T10:34:39.224Z,9524.00
2022-11-01T10:35:39.394Z,10000.00
2022-11-01T10:36:39.262Z,9688.00
2022-11-01T10:37:43.813Z,9460.00
2022-11-01T10:39:16.645Z,8108.00
2022-11-01T10:39:55.828Z,8244.00
2022-11-01T10:40:39.134Z,8468.00
2022-11-01T10:41:39.123Z,7880.00
2022-11-01T10:42:39.116Z,8192.00
2022-11-01T10:43:39.149Z,8612.00
2022-11-01T10:44:39.075Z,7964.00
2022-11-01T10:45:42.352Z,9444.00
2022-11-01T10:46:39.072Z,9544.00
2022-11-01T10:47:39.096Z,11080.00
2022-11-01T10:48:39.056Z,9664.00
2022-11-01T10:50:39.023Z,10324.00
2022-11-01T10:51:39.984Z,11424.00
2022-11-01T10:52:38.988Z,13180.00
2022-11-01T10:53:38.974Z,13304.00
2022-11-01T10:54:39.995Z,12748.00
2022-11-01T10:55:39.023Z,13204.00
2022-11-01T10:56:39.033Z,12672.00
2022-11-01T10:57:38.921Z,12640.00
2022-11-01T10:58:38.901Z,10912.00
2022-11-01T10:59:38.911Z,9224.00
2022-11-01T11:00:39.964Z,8432.00
2022-11-01T11:01:39.283Z,8988.00
2022-11-01T11:02:39.341Z,9280.00
2022-11-01T11:03:38.944Z,10452.00
2022-11-01T11:04:38.849Z,11260.00
2022-11-01T11:05:38.821Z,11268.00
2022-11-01T11:06:38.835Z,10524.00
2022-11-01T11:07:38.959Z,8428.00
2022-11-01T11:08:38.804Z,6988.00
2022-11-01T11:09:38.785Z,6996.00
2022-11-01T11:10:38.783Z,6476.00
2022-11-01T11:11:39.794Z,6312.00
2022-11-01T11:12:38.861Z,6248.00
2022-11-01T11:13:38.746Z,6228.00
2022-11-01T11:14:38.743Z,6200.00
2022-11-01T11:15:38.740Z,6216.00
2022-11-01T11:16:38.706Z,6268.00
2022-11-01T11:17:38.727Z,6272.00
2022-11-01T11:18:38.791Z,6308.00
2022-11-01T11:19:38.729Z,6468.00
2022-11-01T11:20:38.858Z,6576.00
2022-11-01T11:21:38.671Z,6380.00
2022-11-01T11:22:38.647Z,6524.00
2022-11-01T11:23:38.778Z,6768.00
2022-11-01T11:24:38.690Z,6780.00
2022-11-01T11:25:39.552Z,6464.00
2022-11-01T11:26:39.067Z,6524.00
2022-11-01T11:27:38.765Z,6612.00
2022-11-01T11:28:38.731Z,6792.00
2022-11-01T11:29:38.591Z,6652.00
2022-11-01T11:30:38.625Z,6736.00
2022-11-01T11:31:38.604Z,6724.00
2022-11-01T11:32:38.609Z,6844.00
2022-11-01T11:33:38.520Z,6900.00
2022-11-01T11:34:38.505Z,7060.00
2022-11-01T11:35:38.571Z,7172.00
2022-11-01T11:36:38.495Z,7676.00
2022-11-01T11:37:38.539Z,7452.00
2022-11-01T11:38:38.545Z,7844.00
2022-11-01T11:39:38.460Z,8000.00
2022-11-01T11:40:38.450Z,8524.00
2022-11-01T11:41:38.774Z,7860.00
2022-11-01T11:42:38.409Z,8372.00
2022-11-01T11:43:38.393Z,10348.00
2022-11-01T11:44:38.413Z,10288.00
2022-11-01T11:45:38.370Z,11640.00
2022-11-01T11:46:38.691Z,11764.00
2022-11-01T11:47:38.406Z,13528.00
2022-11-01T11:48:38.373Z,13032.00
2022-11-01T11:49:38.332Z,14936.00
2022-11-01T11:50:38.359Z,11648.00
2022-11-01T11:51:38.322Z,10472.00
2022-11-01T11:52:38.947Z,9972.00
2022-11-01T11:53:38.312Z,12844.00
2022-11-01T11:54:38.312Z,12160.00
2022-11-01T11:55:38.424Z,11276.00
2022-11-01T11:56:38.313Z,11068.00
2022-11-01T11:57:39.061Z,11956.00
2022-11-01T11:58:38.230Z,13524.00
2022-11-01T11:59:38.336Z,14116.00
2022-11-01T12:00:38.282Z,14516.00
2022-11-01T12:01:39.286Z,13696.00
2022-11-01T12:02:38.472Z,13872.00
2022-11-01T12:03:38.186Z,11028.00
2022-11-01T12:04:38.247Z,9448.00
2022-11-01T12:05:38.141Z,9772.00
2022-11-01T12:06:38.154Z,12228.00
2022-11-01T12:07:38.154Z,12684.00
2022-11-01T12:08:38.143Z,12664.00
2022-11-01T12:09:38.108Z,15508.00
2022-11-01T12:10:38.136Z,13348.00
2022-11-01T12:11:39.134Z,13320.00
2022-11-01T12:12:38.087Z,13280.00
2022-11-01T12:13:38.073Z,14328.00
2022-11-01T12:14:38.053Z,15248.00
2022-11-01T12:15:41.104Z,13716.00
2022-11-01T12:16:38.021Z,11336.00
2022-11-01T12:17:38.023Z,13304.00
2022-11-01T12:18:37.987Z,16704.00
2022-11-01T12:19:39.016Z,17824.00
2022-11-01T12:20:38.016Z,15656.00
2022-11-01T12:21:38.013Z,15504.00
2022-11-01T12:22:37.994Z,14052.00
2022-11-01T12:23:37.938Z,13588.00
2022-11-01T12:24:37.932Z,13760.00
2022-11-01T12:25:38.505Z,16992.00
2022-11-01T12:26:37.942Z,14092.00
2022-11-01T12:27:37.911Z,13096.00
2022-11-01T12:28:37.902Z,13400.00
2022-11-01T12:29:38.004Z,14452.00
2022-11-01T12:30:37.897Z,13672.00
2022-11-01T12:31:37.842Z,14532.00
2022-11-01T12:32:37.867Z,17120.00
2022-11-01T12:33:37.818Z,17056.00
2022-11-01T12:34:39.856Z,13960.00
2022-11-01T12:35:37.844Z,16424.00
2022-11-01T12:36:37.806Z,15480.00
2022-11-01T12:37:37.774Z,33184.00
2022-11-01T12:38:37.823Z,13644.00
2022-11-01T12:39:37.776Z,24320.00
2022-11-01T12:40:37.812Z,19616.00
2022-11-01T12:41:37.897Z,24960.00
2022-11-01T12:42:37.871Z,12332.00